Time;durP1;ratioP1;P1;durP2;ratioP2;P2;SDS_P1;SDS_P2;PMS_P1;PMS_P2;Temp;Humidity;BMP_temperature;BMP_pressure;BME280_temperature;BME280_humidity;BME280_pressure;Samples;Min_cycle;Max_cycle;Signal;HPM_P1;HPM_P2
2021/01/25 00:03:00;;;;;;;153.65;38.47;;;;;;;;;;8192473;28;20372;-74
2021/01/25 00:07:03;;;;;;;117.88;35.03;;;;;;;;;;8193954;28;20483;-72
2021/01/25 00:11:07;;;;;;;114.90;33.00;;;;;;;;;;8193130;28;20408;-72
2021/01/25 00:15:10;;;;;;;172.25;45.13;;;;;;;;;;8192870;28;20380;-72
2021/01/25 00:19:13;;;;;;;141.13;38.50;;;;;;;;;;8192710;28;20465;-72
2021/01/25 00:23:16;;;;;;;157.48;42.20;;;;;;;;;;8192840;28;20490;-72
2021/01/25 00:27:19;;;;;;;151.02;38.92;;;;;;;;;;8193480;28;20111;-72
2021/01/25 00:31:23;;;;;;;98.97;28.83;;;;;;;;;;8191559;28;20613;-72
2021/01/25 00:35:26;;;;;;;79.90;26.27;;;;;;;;;;8192702;28;20484;-72
2021/01/25 00:39:29;;;;;;;85.05;27.70;;;;;;;;;;8175375;28;20053;-72
2021/01/25 00:43:32;;;;;;;49.92;16.15;;;;;;;;;;8192625;28;20054;-72
2021/01/25 00:47:36;;;;;;;59.47;19.60;;;;;;;;;;8191112;28;20372;-73
2021/01/25 00:51:39;;;;;;;61.65;20.00;;;;;;;;;;8192495;28;20473;-72
2021/01/25 00:55:43;;;;;;;64.30;20.38;;;;;;;;;;8192837;28;20077;-72
2021/01/25 00:59:46;;;;;;;45.67;17.40;;;;;;;;;;8190757;28;20400;-72
2021/01/25 01:03:49;;;;;;;59.92;17.67;;;;;;;;;;8190521;28;20452;-71
2021/01/25 01:07:52;;;;;;;53.30;18.63;;;;;;;;;;8190961;28;20038;-71
2021/01/25 01:11:56;;;;;;;44.42;15.68;;;;;;;;;;8174552;28;20368;-71
2021/01/25 01:15:59;;;;;;;42.70;14.88;;;;;;;;;;8190367;28;20049;-71
2021/01/25 01:20:05;;;;;;;37.22;14.65;;;;;;;;;;8189907;28;20457;-71
2021/01/25 01:24:09;;;;;;;45.95;15.00;;;;;;;;;;8189015;28;20480;-71
2021/01/25 01:28:12;;;;;;;38.47;13.77;;;;;;;;;;8191606;28;20476;-71
2021/01/25 01:32:15;;;;;;;42.47;15.20;;;;;;;;;;8198284;28;20380;-72
2021/01/25 01:36:18;;;;;;;34.42;13.50;;;;;;;;;;8196951;28;20471;-71
2021/01/25 01:40:21;;;;;;;35.88;15.52;;;;;;;;;;8197909;28;20480;-72
2021/01/25 01:44:24;;;;;;;35.80;14.77;;;;;;;;;;8195981;28;20408;-71
2021/01/25 01:54:42;;;;;;;40.40;13.73;;;;;;;;;;8199983;28;20400;-71
2021/01/25 01:59:26;;;;;;;35.33;14.25;;;;;;;;;;8197291;28;20080;-71
2021/01/25 02:03:31;;;;;;;36.70;14.15;;;;;;;;;;8195855;28;20461;-71
2021/01/25 02:15:59;;;;;;;38.83;12.20;;;;;;;;;;8196560;28;20456;-71
2021/01/25 02:20:15;;;;;;;36.40;13.40;;;;;;;;;;8194753;28;20358;-71
2021/01/25 02:24:43;;;;;;;40.05;14.57;;;;;;;;;;8196985;28;20507;-71
2021/01/25 02:28:46;;;;;;;44.63;15.30;;;;;;;;;;8196490;28;20084;-71
2021/01/25 02:32:53;;;;;;;39.90;14.20;;;;;;;;;;8194356;28;20497;-71
2021/01/25 02:36:59;;;;;;;37.28;12.98;;;;;;;;;;8195431;28;20392;-71
2021/01/25 02:41:03;;;;;;;34.92;13.55;;;;;;;;;;8193949;28;20388;-72
2021/01/25 02:45:07;;;;;;;38.55;12.70;;;;;;;;;;8194213;28;20465;-71
2021/01/25 02:49:12;;;;;;;39.53;14.88;;;;;;;;;;8194733;28;20072;-71
2021/01/25 02:53:15;;;;;;;42.53;14.18;;;;;;;;;;8194463;28;20476;-71
2021/01/25 02:57:19;;;;;;;33.35;13.10;;;;;;;;;;8195524;28;20461;-71
2021/01/25 03:01:22;;;;;;;43.08;13.63;;;;;;;;;;8196149;28;20045;-71
2021/01/25 03:05:28;;;;;;;35.75;13.30;;;;;;;;;;8193798;28;20488;-71
2021/01/25 03:09:32;;;;;;;39.22;13.15;;;;;;;;;;8195610;28;20461;-71
2021/01/25 03:13:36;;;;;;;32.53;12.88;;;;;;;;;;8193196;28;20531;-71
2021/01/25 03:17:39;;;;;;;35.90;13.20;;;;;;;;;;8193275;28;20484;-72
2021/01/25 03:21:50;;;;;;;34.78;13.90;;;;;;;;;;8195279;28;20380;-71
2021/01/25 03:25:54;;;;;;;33.63;13.18;;;;;;;;;;8193101;28;20068;-71
2021/01/25 03:29:56;;;;;;;39.63;13.07;;;;;;;;;;8193369;28;20507;-71
2021/01/25 03:34:00;;;;;;;35.65;13.00;;;;;;;;;;8194211;28;20045;-71
2021/01/25 03:38:04;;;;;;;34.65;12.80;;;;;;;;;;8192890;28;20469;-71
2021/01/25 03:42:07;;;;;;;33.72;12.48;;;;;;;;;;8193410;28;20477;-72
2021/01/25 03:46:10;;;;;;;31.73;12.35;;;;;;;;;;8194441;28;20072;-71
2021/01/25 03:50:14;;;;;;;34.95;12.88;;;;;;;;;;8192920;28;20042;-72
2021/01/25 03:54:17;;;;;;;32.35;13.02;;;;;;;;;;8191670;28;20054;-71
2021/01/25 03:58:20;;;;;;;39.40;12.95;;;;;;;;;;8193742;28;20412;-71
2021/01/25 04:02:23;;;;;;;40.80;13.25;;;;;;;;;;8192150;28;20387;-71
2021/01/25 04:06:26;;;;;;;32.80;12.32;;;;;;;;;;8192069;28;20362;-72
2021/01/25 04:10:30;;;;;;;32.53;12.57;;;;;;;;;;8193849;28;20488;-71
2021/01/25 04:14:33;;;;;;;28.33;11.85;;;;;;;;;;8193576;28;20054;-71
2021/01/25 04:18:36;;;;;;;30.25;10.88;;;;;;;;;;8193883;28;20076;-71
2021/01/25 04:22:39;;;;;;;34.30;13.32;;;;;;;;;;8191630;28;20484;-71
2021/01/25 04:26:42;;;;;;;29.25;11.88;;;;;;;;;;8191353;28;20377;-71
2021/01/25 04:30:45;;;;;;;37.90;14.55;;;;;;;;;;8192927;28;20385;-71
2021/01/25 04:34:49;;;;;;;47.25;14.13;;;;;;;;;;8191664;28;20461;-72
2021/01/25 04:38:52;;;;;;;41.15;14.25;;;;;;;;;;8190835;28;20366;-71
2021/01/25 04:42:56;;;;;;;64.38;18.15;;;;;;;;;;8192544;28;20469;-71
2021/01/25 04:47:02;;;;;;;61.45;19.15;;;;;;;;;;8191574;28;20408;-72
2021/01/25 04:51:07;;;;;;;68.25;22.27;;;;;;;;;;8190903;28;20420;-72
2021/01/25 04:55:11;;;;;;;100.95;30.25;;;;;;;;;;8190023;28;20378;-71
2021/01/25 04:59:14;;;;;;;71.82;24.83;;;;;;;;;;8191838;28;20461;-71
2021/01/25 05:03:17;;;;;;;72.43;23.40;;;;;;;;;;8192086;28;20380;-72
2021/01/25 05:07:21;;;;;;;63.65;22.77;;;;;;;;;;8190426;28;20381;-72
2021/01/25 05:11:25;;;;;;;61.65;20.05;;;;;;;;;;8136822;28;20358;-71
2021/01/25 05:15:33;;;;;;;64.57;19.77;;;;;;;;;;8189322;28;20395;-71
2021/01/25 05:19:43;;;;;;;51.80;14.52;;;;;;;;;;8190404;28;20046;-71
2021/01/25 05:23:46;;;;;;;38.17;14.07;;;;;;;;;;8192190;28;20477;-71
2021/01/25 05:27:49;;;;;;;38.22;13.40;;;;;;;;;;8189982;28;20488;-71
2021/01/25 05:31:53;;;;;;;39.30;14.13;;;;;;;;;;8189896;28;20054;-71
2021/01/25 05:35:56;;;;;;;39.13;14.48;;;;;;;;;;8189776;28;20412;-72
2021/01/25 05:39:59;;;;;;;47.85;15.20;;;;;;;;;;8190729;28;20461;-71
2021/01/25 05:44:14;;;;;;;35.63;13.25;;;;;;;;;;8189846;28;20058;-72
2021/01/25 05:48:17;;;;;;;45.42;15.63;;;;;;;;;;8189939;28;20493;-71
2021/01/25 05:52:21;;;;;;;43.28;15.13;;;;;;;;;;8191943;28;20681;-71
2021/01/25 05:56:24;;;;;;;44.03;14.40;;;;;;;;;;8191814;28;20488;-73
2021/01/25 06:00:28;;;;;;;65.45;19.65;;;;;;;;;;8190673;28;20419;-71
2021/01/25 06:04:33;;;;;;;75.25;25.33;;;;;;;;;;8191284;28;20472;-71
2021/01/25 06:08:48;;;;;;;55.97;18.27;;;;;;;;;;8189210;28;20381;-71
2021/01/25 06:13:04;;;;;;;45.90;15.95;;;;;;;;;;8190715;28;20358;-71
2021/01/25 06:17:10;;;;;;;43.10;15.43;;;;;;;;;;8193210;28;20480;-71
2021/01/25 06:21:21;;;;;;;44.72;17.05;;;;;;;;;;8195012;28;20491;-71
2021/01/25 06:25:25;;;;;;;44.28;14.80;;;;;;;;;;8195582;28;20491;-71
2021/01/25 06:29:31;;;;;;;38.70;14.27;;;;;;;;;;8194983;28;20384;-72
2021/01/25 06:33:40;;;;;;;40.33;16.13;;;;;;;;;;8196589;28;20510;-71
2021/01/25 06:37:43;;;;;;;39.45;15.18;;;;;;;;;;8197101;28;20485;-71
2021/01/25 06:41:47;;;;;;;34.13;15.35;;;;;;;;;;8194612;28;20362;-71
2021/01/25 06:45:50;;;;;;;39.88;14.60;;;;;;;;;;8194507;28;20457;-71
2021/01/25 06:49:53;;;;;;;36.03;14.20;;;;;;;;;;8194451;28;20468;-71
2021/01/25 06:54:00;;;;;;;51.70;17.00;;;;;;;;;;8195537;28;20499;-72
2021/01/25 06:58:09;;;;;;;45.60;15.85;;;;;;;;;;8194780;28;20380;-72
2021/01/25 07:02:23;;;;;;;48.25;16.90;;;;;;;;;;8195908;28;20136;-72
2021/01/25 07:06:39;;;;;;;55.15;20.50;;;;;;;;;;8195866;28;20385;-71
2021/01/25 07:11:04;;;;;;;59.70;20.90;;;;;;;;;;8195263;28;20472;-71
2021/01/25 07:15:10;;;;;;;50.22;17.17;;;;;;;;;;8193606;28;20384;-72
2021/01/25 07:19:13;;;;;;;48.22;17.00;;;;;;;;;;8194131;28;20038;-71
2021/01/25 07:23:19;;;;;;;39.58;16.50;;;;;;;;;;8194637;28;20362;-72
2021/01/25 07:27:34;;;;;;;40.38;16.10;;;;;;;;;;8194892;28;20481;-71
2021/01/25 07:31:37;;;;;;;40.72;16.50;;;;;;;;;;8193876;28;20077;-72
2021/01/25 07:35:41;;;;;;;46.50;17.70;;;;;;;;;;8193428;28;20372;-71
2021/01/25 07:39:46;;;;;;;36.40;14.68;;;;;;;;;;8192819;28;20485;-72
2021/01/25 07:43:50;;;;;;;39.47;14.57;;;;;;;;;;8194426;28;20418;-72
2021/01/25 07:47:53;;;;;;;36.38;15.68;;;;;;;;;;8192947;28;20072;-72
2021/01/25 07:51:57;;;;;;;30.02;13.73;;;;;;;;;;8192406;28;20073;-72
2021/01/25 07:56:00;;;;;;;42.17;17.13;;;;;;;;;;8194132;28;20392;-72
2021/01/25 08:00:16;;;;;;;36.53;16.75;;;;;;;;;;8173715;28;20387;-72
2021/01/25 08:04:24;;;;;;;45.33;20.65;;;;;;;;;;8189217;28;20078;-72
2021/01/25 08:08:29;;;;;;;66.88;30.35;;;;;;;;;;8173769;28;20423;-72
2021/01/25 08:12:32;;;;;;;46.72;19.35;;;;;;;;;;8173510;28;20362;-72
2021/01/25 08:16:42;;;;;;;40.95;17.23;;;;;;;;;;8173411;28;20413;-72
2021/01/25 08:20:46;;;;;;;31.52;13.38;;;;;;;;;;8172597;28;20548;-72
2021/01/25 08:24:57;;;;;;;30.88;13.63;;;;;;;;;;8188964;28;20058;-72
2021/01/25 08:29:19;;;;;;;25.65;13.13;;;;;;;;;;8173761;28;20054;-72
2021/01/25 08:33:31;;;;;;;25.00;13.07;;;;;;;;;;8191316;28;20453;-72
2021/01/25 08:37:53;;;;;;;47.60;15.82;;;;;;;;;;8193059;28;20503;-72
2021/01/25 08:41:57;;;;;;;44.10;17.92;;;;;;;;;;8174070;28;20480;-72
2021/01/25 08:46:14;;;;;;;257.08;104.75;;;;;;;;;;8190936;28;20480;-72
2021/01/25 08:50:27;;;;;;;178.60;74.78;;;;;;;;;;8190308;28;20489;-73
2021/01/25 08:54:40;;;;;;;50.63;21.52;;;;;;;;;;8191547;28;20353;-72
2021/01/25 08:58:43;;;;;;;160.50;72.00;;;;;;;;;;8191054;28;20489;-73
2021/01/25 09:02:48;;;;;;;73.13;41.03;;;;;;;;;;8191718;28;20080;-70
2021/01/25 09:06:55;;;;;;;52.78;32.47;;;;;;;;;;8191752;28;20485;-71
2021/01/25 09:10:58;;;;;;;34.55;18.75;;;;;;;;;;8192376;28;20080;-70
2021/01/25 09:15:03;;;;;;;31.38;17.50;;;;;;;;;;8189997;28;20385;-70
2021/01/25 09:19:07;;;;;;;45.88;21.52;;;;;;;;;;8189917;28;20072;-72
2021/01/25 09:23:10;;;;;;;31.65;17.38;;;;;;;;;;8192070;28;20453;-71
2021/01/25 09:27:15;;;;;;;35.63;15.90;;;;;;;;;;8190469;28;20041;-72
2021/01/25 09:31:22;;;;;;;50.83;30.58;;;;;;;;;;8173474;28;20384;-72
2021/01/25 09:35:26;;;;;;;29.10;16.80;;;;;;;;;;8190933;28;20380;-71
2021/01/25 09:39:30;;;;;;;35.50;15.43;;;;;;;;;;8174544;28;20380;-72
2021/01/25 09:43:33;;;;;;;36.60;17.13;;;;;;;;;;8191040;28;20501;-71
2021/01/25 09:47:38;;;;;;;31.52;14.63;;;;;;;;;;8192020;28;20062;-73
2021/01/25 09:51:43;;;;;;;28.42;15.15;;;;;;;;;;8195274;28;20425;-71
2021/01/25 09:55:46;;;;;;;33.20;15.75;;;;;;;;;;8196918;28;20477;-72
2021/01/25 09:59:50;;;;;;;28.45;14.38;;;;;;;;;;8197648;28;20393;-71
2021/01/25 10:03:53;;;;;;;28.40;14.25;;;;;;;;;;8193945;28;20049;-71
2021/01/25 10:07:58;;;;;;;33.70;18.05;;;;;;;;;;8192502;28;20380;-72
2021/01/25 10:12:01;;;;;;;52.22;25.38;;;;;;;;;;8194371;28;20480;-72
2021/01/25 10:16:04;;;;;;;31.88;17.25;;;;;;;;;;8196957;28;20387;-72
2021/01/25 10:20:11;;;;;;;46.20;20.30;;;;;;;;;;8195667;28;20197;-71
2021/01/25 10:24:14;;;;;;;27.35;13.85;;;;;;;;;;8197540;28;20384;-71
2021/01/25 10:28:18;;;;;;;39.13;21.20;;;;;;;;;;8196572;28;20380;-71
2021/01/25 10:32:26;;;;;;;29.02;18.15;;;;;;;;;;8190093;28;20431;-73
2021/01/25 10:36:52;;;;;;;22.50;11.57;;;;;;;;;;8191509;28;20495;-71
2021/01/25 10:41:17;;;;;;;13.77;8.32;;;;;;;;;;8120969;28;20362;-71
2021/01/25 10:45:35;;;;;;;18.25;9.02;;;;;;;;;;8189947;28;20404;-71
2021/01/25 10:49:38;;;;;;;36.33;15.75;;;;;;;;;;8195077;28;20076;-71
2021/01/25 10:53:41;;;;;;;22.48;9.40;;;;;;;;;;8194576;28;20472;-70
2021/01/25 10:57:45;;;;;;;24.27;10.02;;;;;;;;;;8195725;28;20050;-71
2021/01/25 11:01:48;;;;;;;28.13;14.63;;;;;;;;;;8195572;28;20419;-71
2021/01/25 11:05:52;;;;;;;30.95;14.57;;;;;;;;;;8195361;28;20053;-71
2021/01/25 11:09:55;;;;;;;31.83;15.70;;;;;;;;;;8194191;28;20491;-72
2021/01/25 11:13:59;;;;;;;29.58;14.20;;;;;;;;;;8194810;28;20376;-72
2021/01/25 11:18:04;;;;;;;30.90;13.23;;;;;;;;;;8194863;28;20372;-72
2021/01/25 11:22:08;;;;;;;35.40;15.73;;;;;;;;;;8195333;28;20397;-73
2021/01/25 11:26:11;;;;;;;32.28;13.77;;;;;;;;;;8193719;28;20384;-71
2021/01/25 11:30:15;;;;;;;31.95;13.98;;;;;;;;;;8193204;28;20481;-72
2021/01/25 11:34:19;;;;;;;61.80;22.05;;;;;;;;;;8195224;28;20503;-72
2021/01/25 11:38:22;;;;;;;65.20;21.63;;;;;;;;;;8177285;28;20358;-72
2021/01/25 11:42:28;;;;;;;30.98;12.43;;;;;;;;;;8194767;28;20516;-72
2021/01/25 11:46:32;;;;;;;42.10;15.63;;;;;;;;;;8208159;28;20073;-72
2021/01/25 11:50:35;;;;;;;38.47;15.45;;;;;;;;;;8209296;28;20385;-71
2021/01/25 11:54:38;;;;;;;17.30;8.57;;;;;;;;;;8194055;28;20358;-72
2021/01/25 11:58:42;;;;;;;13.32;6.75;;;;;;;;;;8193781;28;20053;-72
2021/01/25 12:02:45;;;;;;;16.00;7.57;;;;;;;;;;8193478;28;20380;-72
2021/01/25 12:06:55;;;;;;;35.13;16.27;;;;;;;;;;8193925;28;20370;-72
2021/01/25 12:10:58;;;;;;;70.68;45.72;;;;;;;;;;8192251;28;20469;-73
2021/01/25 12:15:01;;;;;;;117.22;78.93;;;;;;;;;;8190535;28;20502;-73
2021/01/25 12:19:04;;;;;;;21.42;13.25;;;;;;;;;;8184784;28;20483;-70
2021/01/25 12:23:08;;;;;;;53.00;37.33;;;;;;;;;;8191681;28;20383;-70
2021/01/25 12:27:11;;;;;;;38.92;24.98;;;;;;;;;;8191486;28;20067;-72
2021/01/25 12:31:14;;;;;;;34.08;13.05;;;;;;;;;;8192760;28;20392;-72
2021/01/25 12:35:19;;;;;;;31.08;13.95;;;;;;;;;;8193639;28;20378;-72
2021/01/25 12:39:22;;;;;;;28.90;13.32;;;;;;;;;;8191851;28;20464;-72
2021/01/25 12:43:25;;;;;;;34.63;18.35;;;;;;;;;;8191451;28;20480;-72
2021/01/25 12:47:28;;;;;;;33.33;13.73;;;;;;;;;;8192625;28;20385;-73
2021/01/25 12:51:34;;;;;;;18.35;9.50;;;;;;;;;;8190098;28;20412;-71
2021/01/25 12:55:37;;;;;;;21.05;9.57;;;;;;;;;;8190628;28;20518;-72
2021/01/25 12:59:40;;;;;;;22.35;10.55;;;;;;;;;;8190851;28;20484;-71
2021/01/25 13:03:44;;;;;;;21.77;9.85;;;;;;;;;;8190671;28;20365;-72
2021/01/25 13:07:49;;;;;;;32.22;13.85;;;;;;;;;;8192363;28;20153;-71
2021/01/25 13:11:52;;;;;;;25.52;10.77;;;;;;;;;;8190734;28;20042;-72
2021/01/25 13:15:55;;;;;;;26.42;13.50;;;;;;;;;;8191637;28;20514;-71
2021/01/25 13:19:58;;;;;;;20.55;10.75;;;;;;;;;;8191910;28;20453;-71
2021/01/25 13:24:03;;;;;;;19.50;9.77;;;;;;;;;;8191768;28;20469;-71
2021/01/25 13:28:07;;;;;;;24.45;10.93;;;;;;;;;;8190259;28;20469;-72
2021/01/25 13:32:11;;;;;;;26.88;10.75;;;;;;;;;;8190235;28;20360;-71
2021/01/25 13:36:14;;;;;;;20.27;9.20;;;;;;;;;;8192015;28;20081;-72
2021/01/25 13:40:22;;;;;;;20.85;9.77;;;;;;;;;;8219718;28;20072;-71
2021/01/25 13:44:25;;;;;;;24.50;10.55;;;;;;;;;;8219806;28;20487;-71
2021/01/25 13:48:28;;;;;;;22.83;10.73;;;;;;;;;;8203464;28;20045;-72
2021/01/25 13:52:31;;;;;;;19.17;9.93;;;;;;;;;;8202850;28;20527;-72
2021/01/25 13:56:36;;;;;;;25.75;12.68;;;;;;;;;;8218965;28;20483;-73
2021/01/25 14:00:40;;;;;;;34.80;15.05;;;;;;;;;;8202995;28;20486;-71
2021/01/25 14:04:43;;;;;;;26.17;13.40;;;;;;;;;;8218383;28;20479;-72
2021/01/25 14:08:46;;;;;;;28.33;14.15;;;;;;;;;;8218250;28;20453;-72
2021/01/25 14:12:51;;;;;;;26.33;12.45;;;;;;;;;;8205041;28;20484;-72
2021/01/25 14:16:54;;;;;;;27.83;13.43;;;;;;;;;;8189757;28;20487;-71
2021/01/25 14:20:57;;;;;;;32.08;14.82;;;;;;;;;;8190382;28;20396;-71
2021/01/25 14:25:01;;;;;;;35.40;12.70;;;;;;;;;;8190621;28;20477;-72
2021/01/25 14:29:04;;;;;;;33.80;13.65;;;;;;;;;;8191211;28;20477;-72
2021/01/25 14:33:08;;;;;;;77.30;26.92;;;;;;;;;;8189690;28;20384;-72
2021/01/25 14:37:12;;;;;;;83.97;29.73;;;;;;;;;;8206937;28;20469;-71
2021/01/25 14:41:21;;;;;;;107.57;37.70;;;;;;;;;;8195747;28;20387;-72
2021/01/25 14:45:28;;;;;;;58.85;22.33;;;;;;;;;;8193989;28;20358;-72
2021/01/25 14:49:33;;;;;;;78.45;30.67;;;;;;;;;;8196013;28;20481;-71
2021/01/25 14:53:36;;;;;;;33.28;13.55;;;;;;;;;;8196060;28;20053;-72
2021/01/25 14:57:41;;;;;;;20.50;10.65;;;;;;;;;;8179114;28;20385;-72
2021/01/25 15:01:44;;;;;;;52.78;18.67;;;;;;;;;;8194334;28;20396;-72
2021/01/25 15:05:48;;;;;;;29.67;12.63;;;;;;;;;;8195477;28;20495;-71
2021/01/25 15:09:51;;;;;;;28.10;13.52;;;;;;;;;;8195533;28;20476;-72
2021/01/25 15:13:54;;;;;;;80.30;30.77;;;;;;;;;;8202726;28;20099;-72
2021/01/25 15:17:58;;;;;;;82.32;37.47;;;;;;;;;;8191129;28;20388;-72
2021/01/25 15:22:03;;;;;;;52.28;25.45;;;;;;;;;;8191419;28;20067;-72
2021/01/25 15:26:06;;;;;;;77.35;32.33;;;;;;;;;;8192403;28;20641;-72
2021/01/25 15:30:09;;;;;;;106.88;42.20;;;;;;;;;;8194182;28;20481;-72
2021/01/25 15:34:14;;;;;;;86.40;31.88;;;;;;;;;;8191836;28;20384;-73
2021/01/25 15:38:18;;;;;;;53.38;22.50;;;;;;;;;;8188185;28;20085;-73
2021/01/25 15:42:23;;;;;;;57.38;25.08;;;;;;;;;;8192433;28;20388;-72
2021/01/25 15:46:27;;;;;;;42.50;17.17;;;;;;;;;;8174586;28;20481;-71
2021/01/25 15:50:31;;;;;;;43.88;17.80;;;;;;;;;;8191316;28;20057;-71
2021/01/25 15:54:35;;;;;;;64.05;23.45;;;;;;;;;;8193377;28;20045;-71
2021/01/25 15:58:41;;;;;;;57.72;22.00;;;;;;;;;;8188930;28;20409;-72
2021/01/25 16:02:45;;;;;;;131.23;68.47;;;;;;;;;;8175068;28;20408;-72
2021/01/25 16:06:48;;;;;;;190.20;96.75;;;;;;;;;;8189445;28;20042;-71
2021/01/25 16:10:51;;;;;;;263.45;144.30;;;;;;;;;;8192182;28;20456;-72
2021/01/25 16:14:57;;;;;;;275.77;130.45;;;;;;;;;;8187830;28;20068;-72
2021/01/25 16:19:01;;;;;;;238.40;105.50;;;;;;;;;;8191295;28;20476;-72
2021/01/25 16:23:05;;;;;;;90.38;41.47;;;;;;;;;;8188253;28;20484;-72
2021/01/25 16:27:09;;;;;;;76.03;33.60;;;;;;;;;;8184983;28;20067;-72
2021/01/25 16:31:13;;;;;;;107.25;46.97;;;;;;;;;;8188184;28;20472;-72
2021/01/25 16:35:18;;;;;;;61.83;27.42;;;;;;;;;;8170936;28;20362;-72
2021/01/25 16:39:21;;;;;;;76.95;34.20;;;;;;;;;;8186331;28;20100;-72
2021/01/25 16:43:27;;;;;;;70.40;29.77;;;;;;;;;;8185710;28;20484;-72
2021/01/25 16:47:30;;;;;;;60.60;26.27;;;;;;;;;;8182384;28;20383;-73
2021/01/25 16:51:35;;;;;;;68.90;24.83;;;;;;;;;;8185804;28;20392;-72
2021/01/25 16:55:39;;;;;;;43.83;17.73;;;;;;;;;;8191577;28;20465;-72
2021/01/25 16:59:43;;;;;;;49.55;20.67;;;;;;;;;;8183970;28;20377;-72
2021/01/25 17:03:47;;;;;;;92.65;32.83;;;;;;;;;;8189810;28;20491;-72
2021/01/25 17:07:50;;;;;;;45.45;20.98;;;;;;;;;;8188957;28;20461;-72
2021/01/25 17:11:53;;;;;;;60.17;21.88;;;;;;;;;;8190705;28;20080;-72
2021/01/25 17:15:57;;;;;;;116.25;39.40;;;;;;;;;;8158182;28;20372;-74
2021/01/25 17:20:05;;;;;;;89.53;28.85;;;;;;;;;;8153740;28;20366;-72
2021/01/25 17:24:09;;;;;;;72.70;24.02;;;;;;;;;;8157103;28;20462;-72
2021/01/25 17:28:12;;;;;;;52.88;21.60;;;;;;;;;;8155260;28;20461;-72
2021/01/25 17:32:19;;;;;;;75.13;24.60;;;;;;;;;;8159750;28;20054;-72
2021/01/25 17:36:22;;;;;;;70.45;26.48;;;;;;;;;;8155808;28;20433;-72
2021/01/25 17:40:27;;;;;;;84.03;29.77;;;;;;;;;;8158728;28;20477;-72
2021/01/25 17:44:31;;;;;;;112.40;35.10;;;;;;;;;;8156410;28;20380;-72
2021/01/25 17:48:36;;;;;;;138.55;45.33;;;;;;;;;;8146528;28;20069;-72
2021/01/25 17:52:43;;;;;;;138.35;42.20;;;;;;;;;;8147102;28;20421;-72
2021/01/25 17:56:48;;;;;;;106.82;37.33;;;;;;;;;;8158933;28;20457;-72
2021/01/25 18:00:52;;;;;;;77.22;27.58;;;;;;;;;;8157607;28;20500;-72
2021/01/25 18:04:56;;;;;;;43.05;19.33;;;;;;;;;;8124818;28;20501;-73
2021/01/25 18:08:59;;;;;;;66.07;27.02;;;;;;;;;;8172591;28;20449;-72
2021/01/25 18:13:03;;;;;;;40.60;20.20;;;;;;;;;;8167684;28;20365;-72
2021/01/25 18:17:08;;;;;;;40.13;18.42;;;;;;;;;;8197330;28;20080;-73
2021/01/25 18:21:13;;;;;;;39.22;17.20;;;;;;;;;;8195187;28;20480;-72
2021/01/25 18:25:17;;;;;;;52.97;22.17;;;;;;;;;;8196699;28;20469;-74
2021/01/25 18:29:21;;;;;;;49.67;18.83;;;;;;;;;;8194867;28;20400;-73
2021/01/25 18:33:25;;;;;;;39.38;18.33;;;;;;;;;;8196772;28;20484;-72
2021/01/25 18:37:29;;;;;;;56.97;21.73;;;;;;;;;;8196554;28;20381;-72
2021/01/25 18:41:34;;;;;;;45.13;20.90;;;;;;;;;;8196262;28;20484;-72
2021/01/25 18:45:40;;;;;;;47.83;22.20;;;;;;;;;;8194910;28;20372;-72
2021/01/25 18:49:44;;;;;;;61.42;23.80;;;;;;;;;;8196721;28;20453;-72
2021/01/25 18:53:47;;;;;;;58.40;22.85;;;;;;;;;;8194267;28;20473;-72
2021/01/25 18:57:51;;;;;;;52.38;21.45;;;;;;;;;;8195467;28;20412;-72
2021/01/25 19:01:56;;;;;;;44.30;17.83;;;;;;;;;;8194980;28;20491;-72
2021/01/25 19:06:00;;;;;;;48.58;19.25;;;;;;;;;;8194031;28;20388;-72
2021/01/25 19:10:05;;;;;;;36.17;16.08;;;;;;;;;;8178042;28;20464;-72
2021/01/25 19:14:25;;;;;;;49.53;19.63;;;;;;;;;;8195014;28;20511;-72
2021/01/25 19:18:32;;;;;;;44.20;19.55;;;;;;;;;;8206923;28;20353;-72
2021/01/25 19:22:36;;;;;;;38.03;17.98;;;;;;;;;;8222736;28;20045;-72
2021/01/25 19:26:45;;;;;;;34.00;14.93;;;;;;;;;;8207016;28;20361;-73
2021/01/25 19:31:00;;;;;;;33.95;16.23;;;;;;;;;;8206865;28;20383;-72
2021/01/25 19:35:09;;;;;;;67.93;24.67;;;;;;;;;;8206630;28;20371;-73
2021/01/25 19:39:13;;;;;;;40.58;17.27;;;;;;;;;;8223578;28;20499;-72
2021/01/25 19:43:18;;;;;;;50.60;19.92;;;;;;;;;;8222133;28;20053;-73
2021/01/25 19:47:22;;;;;;;38.00;17.83;;;;;;;;;;8202919;28;20460;-72
2021/01/25 19:51:28;;;;;;;36.47;15.73;;;;;;;;;;8192816;28;20384;-72
2021/01/25 19:55:32;;;;;;;39.50;17.58;;;;;;;;;;8192901;28;20117;-72
2021/01/25 19:59:43;;;;;;;48.97;17.95;;;;;;;;;;8193755;28;20389;-72
2021/01/25 20:03:48;;;;;;;41.00;17.35;;;;;;;;;;8194149;28;20353;-73
2021/01/25 20:07:54;;;;;;;31.05;14.25;;;;;;;;;;8193639;28;20050;-72
2021/01/25 20:11:58;;;;;;;34.65;15.85;;;;;;;;;;8193524;28;20409;-72
2021/01/25 20:16:02;;;;;;;24.63;12.02;;;;;;;;;;8175626;28;20495;-73
2021/01/25 20:20:10;;;;;;;37.38;16.17;;;;;;;;;;8191731;28;20358;-72
2021/01/25 20:24:14;;;;;;;31.20;12.82;;;;;;;;;;8176154;28;20362;-72
2021/01/25 20:28:24;;;;;;;38.03;15.30;;;;;;;;;;8193811;28;20373;-72
2021/01/25 20:32:27;;;;;;;35.95;15.82;;;;;;;;;;8193635;28;20049;-72
2021/01/25 20:36:34;;;;;;;30.95;14.07;;;;;;;;;;8190998;28;20365;-72
2021/01/25 20:40:48;;;;;;;27.33;11.98;;;;;;;;;;8191074;28;20068;-72
2021/01/25 20:44:52;;;;;;;28.73;14.63;;;;;;;;;;8190820;28;20076;-74
2021/01/25 20:48:56;;;;;;;41.13;18.17;;;;;;;;;;8191440;28;20405;-72
2021/01/25 20:53:01;;;;;;;50.40;19.38;;;;;;;;;;8190032;28;20381;-72
2021/01/25 20:57:04;;;;;;;45.80;18.67;;;;;;;;;;8191448;28;20076;-73
2021/01/25 21:01:10;;;;;;;47.40;17.85;;;;;;;;;;8191228;28;20076;-72
2021/01/25 21:05:23;;;;;;;59.33;20.35;;;;;;;;;;8191758;28;20465;-73
2021/01/25 21:09:28;;;;;;;44.72;18.98;;;;;;;;;;8190953;28;20372;-73
2021/01/25 21:13:49;;;;;;;58.88;25.38;;;;;;;;;;8187135;28;20380;-73
2021/01/25 21:18:14;;;;;;;51.50;18.25;;;;;;;;;;8171965;28;20452;-73
2021/01/25 21:22:18;;;;;;;40.75;16.13;;;;;;;;;;8124184;28;20478;-73
2021/01/25 21:26:23;;;;;;;45.75;17.38;;;;;;;;;;8123892;28;20058;-73
2021/01/25 21:30:30;;;;;;;48.85;17.73;;;;;;;;;;8123466;28;20457;-73
2021/01/25 21:34:33;;;;;;;57.10;17.85;;;;;;;;;;8108246;28;20077;-73
2021/01/25 21:38:37;;;;;;;65.55;20.52;;;;;;;;;;8123216;28;20474;-73
2021/01/25 21:42:43;;;;;;;118.25;33.95;;;;;;;;;;8123550;28;20369;-73
2021/01/25 21:46:49;;;;;;;119.75;34.17;;;;;;;;;;8126188;28;20482;-72
2021/01/25 21:50:55;;;;;;;59.47;20.42;;;;;;;;;;8141658;28;20391;-72
2021/01/25 21:54:58;;;;;;;135.45;38.50;;;;;;;;;;8197891;28;20050;-73
2021/01/25 21:59:02;;;;;;;113.03;33.92;;;;;;;;;;8198077;28;20457;-73
2021/01/25 22:03:06;;;;;;;117.55;33.83;;;;;;;;;;8196273;28;20476;-71
2021/01/25 22:07:09;;;;;;;97.53;24.70;;;;;;;;;;8195993;28;20491;-71
2021/01/25 22:11:12;;;;;;;58.83;18.65;;;;;;;;;;8195347;28;20469;-73
2021/01/25 22:15:22;;;;;;;38.97;15.80;;;;;;;;;;8197297;28;20378;-73
2021/01/25 22:19:27;;;;;;;45.05;17.50;;;;;;;;;;8195441;28;20468;-73
2021/01/25 22:23:31;;;;;;;46.13;17.23;;;;;;;;;;8196691;28;20408;-73
2021/01/25 22:27:34;;;;;;;46.55;17.33;;;;;;;;;;8197363;28;20077;-71
2021/01/25 22:31:38;;;;;;;35.42;14.80;;;;;;;;;;8194984;28;20354;-71
2021/01/25 22:35:41;;;;;;;38.97;15.05;;;;;;;;;;8196837;28;20392;-71
2021/01/25 22:39:45;;;;;;;41.35;16.33;;;;;;;;;;8195022;28;20476;-72
2021/01/25 22:43:48;;;;;;;33.78;13.82;;;;;;;;;;8195964;28;20053;-71
2021/01/25 22:47:57;;;;;;;61.28;19.25;;;;;;;;;;8196260;28;20503;-71
2021/01/25 22:52:01;;;;;;;45.53;15.70;;;;;;;;;;8194618;28;20420;-71
2021/01/25 22:56:05;;;;;;;64.70;20.38;;;;;;;;;;8194427;28;20392;-72
2021/01/25 23:00:22;;;;;;;69.18;19.23;;;;;;;;;;8194974;28;20377;-72
2021/01/25 23:04:26;;;;;;;28.85;13.65;;;;;;;;;;8192649;28;20080;-72
2021/01/25 23:08:29;;;;;;;51.13;17.83;;;;;;;;;;8194474;28;20477;-72
2021/01/25 23:12:32;;;;;;;37.55;14.60;;;;;;;;;;8195001;28;20072;-72
2021/01/25 23:16:35;;;;;;;46.90;17.42;;;;;;;;;;8194060;28;20072;-72
2021/01/25 23:20:38;;;;;;;54.63;18.90;;;;;;;;;;8194448;28;20476;-72
2021/01/25 23:24:42;;;;;;;50.03;17.80;;;;;;;;;;8195710;28;20057;-72
2021/01/25 23:28:45;;;;;;;46.10;15.88;;;;;;;;;;8194363;28;20377;-72
2021/01/25 23:32:48;;;;;;;27.33;11.52;;;;;;;;;;8195400;28;20420;-72
2021/01/25 23:36:53;;;;;;;41.75;14.57;;;;;;;;;;8194706;28;20473;-71
2021/01/25 23:40:56;;;;;;;30.63;11.30;;;;;;;;;;8193578;28;20377;-72
2021/01/25 23:44:59;;;;;;;37.63;13.88;;;;;;;;;;8194558;28;20507;-72
2021/01/25 23:49:03;;;;;;;29.95;13.35;;;;;;;;;;8194453;28;20448;-71
2021/01/25 23:53:06;;;;;;;32.97;13.15;;;;;;;;;;8192774;28;20388;-72
2021/01/25 23:57:09;;;;;;;39.83;15.32;;;;;;;;;;8194834;28;20452;-72
